createdAt,value
2019-01-10T00:00:15.264Z,3.57
2019-01-10T00:06:10.265Z,2.02
2019-01-10T00:12:05.285Z,2.19
2019-01-10T00:18:00.263Z,2.5
2019-01-10T00:23:55.271Z,2.54
2019-01-10T00:29:50.300Z,2.12
2019-01-10T00:35:45.336Z,2.68
2019-01-10T00:41:40.286Z,2.58
2019-01-10T00:47:35.329Z,2.24
2019-01-10T00:53:30.303Z,2.74
2019-01-10T00:59:25.298Z,3.5
2019-01-10T01:05:20.290Z,3.66
2019-01-10T01:11:15.312Z,2.68
2019-01-10T01:17:10.297Z,3.91
2019-01-10T01:23:05.303Z,3.29
2019-01-10T01:29:00.319Z,3.58
2019-01-10T01:34:55.309Z,2.78
2019-01-10T01:40:50.306Z,2.48
2019-01-10T01:46:45.316Z,2.6
2019-01-10T01:52:40.316Z,2.93
2019-01-10T01:58:35.316Z,3.01
2019-01-10T02:04:30.397Z,2.63
2019-01-10T02:10:25.322Z,2.84
2019-01-10T02:16:20.321Z,2.63
2019-01-10T02:22:15.379Z,4.08
2019-01-10T02:28:10.342Z,3.2
2019-01-10T02:34:05.347Z,2.63
2019-01-10T02:40:00.462Z,2.84
2019-01-10T02:45:55.364Z,2.85
2019-01-10T02:51:50.395Z,3.54
2019-01-10T02:57:45.470Z,3.79
2019-01-10T03:03:40.358Z,4.51
2019-01-10T03:09:35.361Z,2.87
2019-01-10T03:15:30.391Z,2.85
2019-01-10T03:21:25.404Z,2.97
2019-01-10T03:27:20.374Z,3.43
2019-01-10T03:33:15.385Z,3.24
2019-01-10T03:39:10.380Z,3.54
2019-01-10T03:45:05.406Z,3.08
2019-01-10T03:51:00.468Z,3.25
2019-01-10T03:56:55.406Z,3.59
2019-01-10T04:02:50.407Z,5.7
2019-01-10T04:08:45.431Z,5.87
2019-01-10T04:14:40.372Z,4.66
2019-01-10T04:20:35.379Z,6.36
2019-01-10T04:26:30.413Z,16.52
2019-01-10T04:32:25.418Z,9.82
2019-01-10T04:38:20.374Z,16.57
2019-01-10T04:44:15.374Z,14.05
2019-01-10T04:50:10.424Z,9.68
2019-01-10T04:56:05.395Z,8.16
2019-01-10T05:02:00.387Z,5.12
2019-01-10T05:07:55.405Z,4.41
2019-01-10T05:13:50.389Z,3.67
2019-01-10T05:19:45.416Z,3.13
2019-01-10T05:25:40.394Z,2.66
2019-01-10T05:31:35.408Z,3.27
2019-01-10T05:37:30.422Z,2.81
2019-01-10T05:43:25.426Z,2.85
2019-01-10T05:49:20.454Z,3.01
2019-01-10T05:55:15.411Z,2.9
2019-01-10T06:01:10.412Z,3.9
2019-01-10T06:07:05.426Z,3.24
2019-01-10T06:13:00.454Z,3.1
2019-01-10T06:18:55.438Z,3.56
2019-01-10T06:24:50.466Z,3.9
2019-01-10T06:30:45.420Z,3.7
2019-01-10T06:36:40.432Z,2.77
2019-01-10T06:42:35.443Z,3.23
2019-01-10T06:48:30.450Z,3.17
2019-01-10T06:54:25.465Z,2.71
2019-01-10T07:00:20.470Z,2.77
2019-01-10T07:06:15.459Z,2.71
2019-01-10T07:12:10.461Z,2.63
2019-01-10T07:18:05.449Z,2.95
2019-01-10T07:24:00.455Z,3.28
2019-01-10T07:29:55.472Z,2.55
2019-01-10T07:35:50.467Z,4.8
2019-01-10T07:41:45.532Z,3.6
2019-01-10T07:47:40.461Z,7.51
2019-01-10T07:53:35.483Z,5.92
2019-01-10T07:59:30.456Z,7.65
2019-01-10T08:05:25.478Z,5.71
2019-01-10T08:11:20.481Z,9.09
2019-01-10T08:17:16.071Z,15.15
2019-01-10T08:23:10.493Z,17.23
2019-01-10T08:29:05.511Z,21.97
2019-01-10T08:35:00.489Z,22.87
2019-01-10T08:40:55.514Z,18.51
2019-01-10T08:46:50.475Z,19.17
2019-01-10T08:52:45.496Z,29.55
2019-01-10T08:58:40.495Z,20.75
2019-01-10T09:04:35.524Z,20.92
2019-01-10T09:10:30.545Z,28.72
2019-01-10T09:16:25.520Z,25.18
2019-01-10T09:22:20.500Z,33.41
2019-01-10T09:28:15.535Z,32.88
2019-01-10T09:34:10.510Z,32.99
2019-01-10T09:40:05.566Z,29.66
2019-01-10T09:46:00.510Z,23.48
2019-01-10T09:51:55.544Z,23.08
2019-01-10T09:57:50.526Z,18.45
2019-01-10T10:03:45.519Z,24.18
2019-01-10T10:09:40.527Z,43.49
2019-01-10T10:15:35.526Z,28.12
2019-01-10T10:21:30.563Z,32.7
2019-01-10T10:27:25.534Z,31.9
2019-01-10T10:33:20.607Z,20.4
2019-01-10T10:39:15.560Z,13.28
2019-01-10T10:45:10.541Z,5.05
2019-01-10T10:51:05.539Z,3.8
2019-01-10T10:57:00.594Z,3.06
2019-01-10T11:02:55.540Z,3.95
2019-01-10T11:08:50.575Z,3.75
2019-01-10T11:14:48.238Z,19.42
2019-01-10T11:20:40.599Z,6.18
2019-01-10T11:26:35.602Z,8.81
2019-01-10T11:32:30.625Z,3.12
2019-01-10T11:38:25.574Z,5.81
2019-01-10T11:44:20.653Z,17.06
2019-01-10T11:50:15.715Z,2.59
2019-01-10T11:56:10.586Z,3.18
2019-01-10T12:02:05.636Z,2.37
2019-01-10T12:08:00.624Z,1.78
2019-01-10T12:13:55.604Z,11
2019-01-10T12:19:50.596Z,2.75
2019-01-10T12:25:45.580Z,1.6
2019-01-10T12:31:40.612Z,2.02
2019-01-10T12:37:35.611Z,1.14
2019-01-10T12:43:30.622Z,0.98
2019-01-10T12:49:25.611Z,1.03
2019-01-10T12:55:20.622Z,1.1
2019-01-10T13:01:15.617Z,1.65
2019-01-10T13:07:10.630Z,2.43
2019-01-10T13:13:05.627Z,2.69
2019-01-10T13:19:00.651Z,1.3
2019-01-10T13:24:55.646Z,1.98
2019-01-10T13:30:50.656Z,2.64
2019-01-10T13:36:45.648Z,6.84
2019-01-10T13:42:40.705Z,8.07
2019-01-10T13:48:35.652Z,9.01
2019-01-10T13:54:30.695Z,9.21
2019-01-10T14:00:25.664Z,3.47
2019-01-10T14:06:20.658Z,8.03
2019-01-10T14:12:15.669Z,19.82
2019-01-10T14:18:10.691Z,2.31
2019-01-10T14:24:05.692Z,2.16
2019-01-10T14:30:00.686Z,7.68
2019-01-10T14:35:55.681Z,4.91
2019-01-10T14:41:50.670Z,3.97
2019-01-10T14:47:45.698Z,4.44
2019-01-10T14:53:40.676Z,3.71
2019-01-10T14:59:35.704Z,4.78
2019-01-10T15:05:34.261Z,11.4
2019-01-10T15:11:25.733Z,3.05
2019-01-10T15:17:20.706Z,2.48
2019-01-10T15:23:15.714Z,3.38
2019-01-10T15:29:10.712Z,1.62
2019-01-10T15:35:05.723Z,2.02
2019-01-10T15:41:00.727Z,0.73
2019-01-10T15:46:55.718Z,2.96
2019-01-10T15:52:50.724Z,3.99
2019-01-10T15:58:45.723Z,5.09
2019-01-10T16:04:40.736Z,4.17
2019-01-10T16:10:35.721Z,2.33
2019-01-10T16:16:30.747Z,2.58
2019-01-10T16:22:25.737Z,3.3
2019-01-10T16:28:20.747Z,1.14
2019-01-10T16:34:15.748Z,1.77
2019-01-10T16:40:10.750Z,4.47
2019-01-10T16:46:05.761Z,4.5
2019-01-10T16:52:00.754Z,24.36
2019-01-10T16:57:55.775Z,9.04
2019-01-10T17:03:50.770Z,104.78
2019-01-10T17:09:45.803Z,151.96
2019-01-10T17:15:40.779Z,35.91
2019-01-10T17:21:35.796Z,131.44
2019-01-10T17:27:30.799Z,118.3
2019-01-10T17:33:25.784Z,55.55
2019-01-10T17:39:20.788Z,50.95
2019-01-10T17:45:15.790Z,11.35
2019-01-10T17:51:10.835Z,25.77
2019-01-10T17:57:05.801Z,20.5
2019-01-10T18:03:00.883Z,22.69
2019-01-10T18:08:55.821Z,18.03
2019-01-10T18:14:50.802Z,16.72
2019-01-10T18:20:45.818Z,4.88
2019-01-10T18:26:40.840Z,4.1
2019-01-10T18:32:35.813Z,4.01
2019-01-10T18:38:30.804Z,2.82
2019-01-10T18:44:25.819Z,2.57
2019-01-10T18:50:21.738Z,7.35
2019-01-10T18:56:15.813Z,4.4
2019-01-10T19:02:10.832Z,5.88
2019-01-10T19:08:05.835Z,7.24
2019-01-10T19:14:00.851Z,2.87
2019-01-10T19:19:55.815Z,19.19
2019-01-10T19:25:50.866Z,22.73
2019-01-10T19:31:45.873Z,36.73
2019-01-10T19:37:40.840Z,21.33
2019-01-10T19:43:35.888Z,16.9
2019-01-10T19:49:30.917Z,13.18
2019-01-10T19:55:25.848Z,12.51
2019-01-10T20:01:20.852Z,9.69
2019-01-10T20:07:15.867Z,11.15
2019-01-10T20:13:10.839Z,3.92
2019-01-10T20:19:05.915Z,17.73
2019-01-10T20:25:00.946Z,19.17
2019-01-10T20:30:55.874Z,6.09
2019-01-10T20:36:50.871Z,22.93
2019-01-10T20:42:45.891Z,30.06
2019-01-10T20:48:40.927Z,5.11
2019-01-10T20:54:35.892Z,22.59
2019-01-10T21:00:30.908Z,24.48
2019-01-10T21:06:25.898Z,7.28
2019-01-10T21:12:20.921Z,15.4
2019-01-10T21:18:15.875Z,11.92
2019-01-10T21:24:10.907Z,5.76
2019-01-10T21:30:05.930Z,7.84
2019-01-10T21:36:00.922Z,7.85
2019-01-10T21:41:55.907Z,4.71
2019-01-10T21:47:50.895Z,6.23
2019-01-10T21:53:45.905Z,4.04
2019-01-10T21:59:40.956Z,2.73
2019-01-10T22:05:35.913Z,2.2
2019-01-10T22:11:30.908Z,2.01
2019-01-10T22:17:25.888Z,1.97
2019-01-10T22:23:20.909Z,2.68
2019-01-10T22:29:15.910Z,3.76
2019-01-10T22:35:10.922Z,3.85
2019-01-10T22:41:05.961Z,5.16
2019-01-10T22:47:00.925Z,3.22
2019-01-10T22:52:55.943Z,2.56
2019-01-10T22:58:50.988Z,4.23
2019-01-10T23:04:45.930Z,2.1
2019-01-10T23:10:40.919Z,2.31
2019-01-10T23:16:35.942Z,2
2019-01-10T23:22:32.336Z,1.99
2019-01-10T23:28:25.953Z,2.3
2019-01-10T23:34:20.940Z,1.8
2019-01-10T23:40:15.944Z,1.78
2019-01-10T23:46:10.940Z,1.94
2019-01-10T23:52:05.946Z,1.57
2019-01-10T23:58:00.962Z,1.92
